Time;durP1;ratioP1;P1;durP2;ratioP2;P2;SDS_P1;SDS_P2;PMS_P1;PMS_P2;Temp;Humidity;BMP_temperature;BMP_pressure;BME280_temperature;BME280_humidity;BME280_pressure;Samples;Min_cycle;Max_cycle;Signal;HPM_P1;HPM_P2
2023/02/21 02:15:18;;;;;;;1.33;0.73;;;4.70;81.20;;;;;;5046701;28;20279;-74
2023/02/21 02:18:12;;;;;;;1.03;1.03;;;4.70;80.60;;;;;;5048722;28;20187;-74
2023/02/21 02:21:07;;;;;;;0.87;0.80;;;4.70;81.00;;;;;;5048117;28;20191;-74
2023/02/21 02:23:59;;;;;;;0.50;0.50;;;4.70;81.10;;;;;;5053214;28;20221;-75
2023/02/21 02:26:30;;;;;;;0.77;0.77;;;4.70;81.10;;;;;;5050722;28;20194;-74
2023/02/21 02:29:15;;;;;;;1.97;0.90;;;4.60;81.40;;;;;;5053203;28;20874;-74
2023/02/21 02:32:17;;;;;;;1.30;0.93;;;4.60;81.20;;;;;;5052169;28;20232;-74
2023/02/21 02:35:08;;;;;;;0.37;0.37;;;4.60;81.10;;;;;;5051861;28;20192;-75
2023/02/21 02:37:37;;;;;;;0.90;0.90;;;4.60;81.10;;;;;;5054957;28;20336;-74
2023/02/21 02:40:31;;;;;;;0.70;0.53;;;4.60;81.20;;;;;;5055441;28;20695;-74
2023/02/21 02:43:24;;;;;;;0.73;0.73;;;4.70;81.00;;;;;;5057163;28;20178;-74
2023/02/21 02:46:33;;;;;;;0.40;0.40;;;4.70;81.10;;;;;;5053998;28;20184;-75
2023/02/21 02:49:07;;;;;;;0.53;0.53;;;4.70;81.00;;;;;;4986332;28;20884;-74
2023/02/21 02:51:34;;;;;;;1.10;0.50;;;4.70;80.80;;;;;;4985255;28;20196;-74
2023/02/21 02:53:59;;;;;;;0.30;0.30;;;4.70;80.80;;;;;;5002794;28;20188;-74
2023/02/21 02:56:27;;;;;;;0.60;0.60;;;4.70;80.70;;;;;;5001540;28;20274;-74
2023/02/21 02:59:03;;;;;;;0.97;0.63;;;4.70;80.60;;;;;;5002561;28;20192;-75
2023/02/21 03:01:50;;;;;;;0.97;0.50;;;4.80;80.40;;;;;;5002235;28;20184;-75
2023/02/21 03:04:46;;;;;;;0.40;0.40;;;4.80;80.30;;;;;;5000461;28;20192;-74
2023/02/21 03:07:30;;;;;;;0.40;0.40;;;4.80;79.60;;;;;;5001847;28;20193;-75
2023/02/21 03:10:07;;;;;;;0.37;0.37;;;4.80;80.00;;;;;;5001639;28;20217;-74
2023/02/21 03:12:57;;;;;;;0.70;0.70;;;4.80;80.00;;;;;;5002541;28;20465;-75
2023/02/21 03:15:37;;;;;;;0.30;0.30;;;4.80;79.70;;;;;;5001560;28;20736;-75
2023/02/21 03:18:13;;;;;;;0.50;0.50;;;4.80;80.00;;;;;;4985706;28;20827;-75
2023/02/21 03:20:41;;;;;;;0.47;0.47;;;4.70;80.30;;;;;;4985484;28;20196;-74
2023/02/21 03:23:09;;;;;;;0.50;0.50;;;4.80;80.30;;;;;;5032328;28;20203;-75
2023/02/21 03:25:37;;;;;;;0.53;0.53;;;4.70;80.70;;;;;;5050372;28;20194;-74
2023/02/21 03:28:04;;;;;;;0.50;0.50;;;4.70;80.60;;;;;;5053210;28;20192;-73
2023/02/21 03:30:30;;;;;;;0.40;0.40;;;4.70;80.50;;;;;;5052924;28;20238;-75
2023/02/21 03:32:56;;;;;;;2.87;1.40;;;4.60;80.70;;;;;;5052702;28;20179;-74
2023/02/21 03:35:22;;;;;;;0.87;0.40;;;4.60;80.80;;;;;;5049341;28;20224;-75
2023/02/21 03:37:51;;;;;;;0.33;0.33;;;4.60;81.00;;;;;;5048308;28;20192;-74
2023/02/21 03:40:24;;;;;;;1.40;0.80;;;4.70;80.80;;;;;;5051777;28;20183;-74
2023/02/21 03:42:51;;;;;;;0.63;0.30;;;4.60;80.70;;;;;;5055698;28;20186;-74
2023/02/21 03:45:16;;;;;;;0.67;0.67;;;4.60;81.00;;;;;;5047264;28;20272;-74
2023/02/21 03:47:42;;;;;;;0.50;0.40;;;4.60;81.00;;;;;;5055064;28;20272;-74
2023/02/21 03:50:08;;;;;;;0.40;0.40;;;4.50;81.20;;;;;;5050473;28;20215;-74
2023/02/21 03:52:33;;;;;;;1.23;0.70;;;4.50;81.00;;;;;;5052564;28;20188;-74
2023/02/21 03:54:59;;;;;;;0.37;0.37;;;4.40;81.00;;;;;;5054193;28;20470;-74
2023/02/21 03:57:25;;;;;;;0.50;0.50;;;4.40;81.20;;;;;;5054789;28;20830;-74
2023/02/21 03:59:51;;;;;;;0.47;0.47;;;4.40;81.10;;;;;;5053720;28;20722;-74
2023/02/21 04:02:17;;;;;;;0.67;0.67;;;4.40;81.30;;;;;;5053888;28;20217;-74
2023/02/21 04:04:44;;;;;;;0.93;0.60;;;4.30;81.10;;;;;;5050084;28;20266;-74
2023/02/21 04:07:10;;;;;;;1.33;0.50;;;4.30;81.50;;;;;;5051343;28;20190;-74
2023/02/21 04:09:37;;;;;;;0.20;0.20;;;4.20;81.70;;;;;;5049612;28;20291;-74
2023/02/21 04:12:03;;;;;;;0.50;0.40;;;4.20;81.80;;;;;;5052610;28;20186;-74
2023/02/21 04:14:29;;;;;;;0.40;0.40;;;4.20;82.10;;;;;;5050714;28;20199;-75
2023/02/21 04:16:54;;;;;;;0.60;0.60;;;4.20;82.00;;;;;;5052569;28;20660;-74
2023/02/21 04:19:20;;;;;;;0.50;0.50;;;4.10;81.90;;;;;;5056263;28;20196;-74
2023/02/21 04:21:46;;;;;;;0.87;0.40;;;4.10;82.30;;;;;;5051199;28;20172;-74
2023/02/21 04:24:11;;;;;;;0.30;0.30;;;4.10;82.20;;;;;;5049611;28;20248;-75
2023/02/21 04:26:37;;;;;;;0.37;0.37;;;4.00;82.20;;;;;;5051667;28;20174;-75
2023/02/21 04:29:03;;;;;;;0.30;0.30;;;4.00;82.90;;;;;;5046667;28;20187;-74
2023/02/21 04:31:29;;;;;;;2.67;0.63;;;4.00;82.60;;;;;;5049782;28;20182;-74
2023/02/21 04:33:54;;;;;;;0.37;0.37;;;4.00;82.80;;;;;;5043131;28;20803;-74
2023/02/21 04:36:20;;;;;;;0.70;0.70;;;4.00;82.40;;;;;;5048116;28;20203;-74
2023/02/21 04:38:46;;;;;;;0.30;0.30;;;3.90;82.70;;;;;;5045726;28;20668;-74
2023/02/21 04:41:11;;;;;;;0.90;0.70;;;3.90;82.90;;;;;;5047128;28;20184;-74
2023/02/21 04:43:37;;;;;;;0.40;0.40;;;3.90;83.00;;;;;;5045903;28;21820;-74
2023/02/21 04:46:03;;;;;;;0.60;0.60;;;3.90;83.30;;;;;;5046787;28;20657;-74
2023/02/21 04:48:28;;;;;;;5.80;0.40;;;3.90;82.90;;;;;;5044695;28;20180;-74
2023/02/21 04:50:54;;;;;;;0.40;0.40;;;3.90;83.10;;;;;;5044231;28;20207;-74
2023/02/21 04:53:20;;;;;;;0.40;0.40;;;3.90;82.90;;;;;;5043886;28;20183;-73
2023/02/21 04:55:45;;;;;;;0.30;0.30;;;3.90;82.90;;;;;;5043974;28;20185;-73
2023/02/21 04:58:11;;;;;;;1.33;0.50;;;4.00;82.20;;;;;;5047237;28;20992;-75
2023/02/21 05:00:36;;;;;;;0.50;0.50;;;3.90;82.70;;;;;;5045940;28;20774;-74
2023/02/21 05:03:02;;;;;;;0.47;0.47;;;3.90;83.00;;;;;;5047665;28;20219;-74
2023/02/21 05:05:28;;;;;;;0.30;0.30;;;4.00;82.40;;;;;;5049708;28;20604;-74
2023/02/21 05:07:54;;;;;;;0.93;0.70;;;3.90;82.60;;;;;;5047430;28;20213;-75
2023/02/21 05:10:19;;;;;;;0.50;0.50;;;4.00;82.20;;;;;;5047773;28;20272;-73
2023/02/21 05:12:45;;;;;;;0.73;0.60;;;4.10;82.20;;;;;;5045285;28;20235;-75
2023/02/21 05:15:12;;;;;;;1.07;0.50;;;4.10;82.60;;;;;;5048958;28;20289;-74
2023/02/21 05:17:37;;;;;;;0.50;0.50;;;4.10;82.50;;;;;;5049785;28;20272;-75
2023/02/21 05:20:06;;;;;;;0.70;0.70;;;4.10;82.50;;;;;;5049325;28;20275;-74
2023/02/21 05:22:33;;;;;;;1.73;0.40;;;4.10;82.60;;;;;;5047571;28;20203;-75
2023/02/21 05:24:58;;;;;;;0.40;0.40;;;4.00;83.00;;;;;;5047829;28;20184;-75
2023/02/21 05:27:24;;;;;;;0.73;0.73;;;4.00;82.90;;;;;;5042370;28;20742;-76
2023/02/21 05:29:52;;;;;;;0.30;0.30;;;4.00;82.80;;;;;;5046427;28;20211;-76
2023/02/21 05:32:20;;;;;;;0.90;0.70;;;4.00;82.80;;;;;;5051234;28;20186;-77
2023/02/21 05:34:46;;;;;;;0.70;0.50;;;4.00;82.80;;;;;;5047304;28;20275;-77
2023/02/21 05:37:19;;;;;;;0.90;0.60;;;4.00;82.90;;;;;;5046498;28;20175;-76
2023/02/21 05:39:45;;;;;;;0.40;0.40;;;4.00;83.00;;;;;;5045375;28;20183;-78
2023/02/21 05:42:11;;;;;;;0.50;0.50;;;4.00;83.10;;;;;;5047741;28;20687;-80
2023/02/21 05:44:37;;;;;;;0.67;0.67;;;4.00;83.00;;;;;;5048507;28;20270;-76
2023/02/21 05:47:02;;;;;;;0.90;0.90;;;4.00;83.10;;;;;;5047883;28;20653;-76
2023/02/21 05:49:28;;;;;;;3.70;1.00;;;4.00;83.10;;;;;;5044693;28;20218;-78
2023/02/21 05:51:54;;;;;;;1.17;1.03;;;4.00;83.50;;;;;;5048826;28;20182;-77
2023/02/21 05:54:21;;;;;;;1.07;1.07;;;4.10;83.30;;;;;;5047768;28;20180;-77
2023/02/21 05:56:48;;;;;;;0.77;0.77;;;4.10;83.30;;;;;;5050229;28;20715;-77
2023/02/21 05:59:16;;;;;;;1.03;1.03;;;4.10;83.30;;;;;;5054138;28;20191;-79
2023/02/21 06:01:41;;;;;;;1.10;1.07;;;4.10;83.30;;;;;;5047160;28;20183;-79
2023/02/21 06:04:07;;;;;;;0.87;0.87;;;4.20;83.40;;;;;;5047754;28;20588;-76
2023/02/21 06:06:34;;;;;;;6.03;1.20;;;4.20;83.30;;;;;;5057465;28;20183;-74
2023/02/21 06:08:59;;;;;;;2.17;0.90;;;4.30;83.10;;;;;;5056965;28;20191;-74
2023/02/21 06:11:29;;;;;;;4.07;0.70;;;4.30;83.10;;;;;;5050438;28;20184;-74
2023/02/21 06:13:56;;;;;;;0.50;0.50;;;4.40;83.00;;;;;;5052734;28;20762;-75
2023/02/21 06:16:22;;;;;;;0.53;0.53;;;4.50;83.00;;;;;;5059914;28;20187;-74
2023/02/21 06:18:55;;;;;;;5.37;0.93;;;4.50;82.90;;;;;;5049261;28;20168;-74
2023/02/21 06:21:22;;;;;;;0.90;0.87;;;4.60;82.50;;;;;;5053926;28;20191;-74
2023/02/21 06:23:48;;;;;;;1.80;0.90;;;4.70;82.40;;;;;;5048705;28;20649;-75
2023/02/21 06:26:15;;;;;;;0.70;0.70;;;4.80;82.40;;;;;;5054219;28;20188;-74
2023/02/21 06:28:40;;;;;;;1.00;0.93;;;4.90;82.20;;;;;;5054576;28;20810;-74
2023/02/21 06:31:06;;;;;;;1.00;0.87;;;5.00;81.70;;;;;;5051085;28;20302;-74
2023/02/21 06:33:32;;;;;;;0.87;0.87;;;5.10;81.30;;;;;;5054115;28;20252;-74
2023/02/21 06:36:01;;;;;;;0.70;0.60;;;5.10;81.40;;;;;;5048873;28;20271;-74
2023/02/21 06:38:27;;;;;;;1.30;1.20;;;5.20;80.60;;;;;;5049016;28;20278;-74
2023/02/21 06:40:53;;;;;;;0.83;0.83;;;5.30;80.90;;;;;;5048872;28;20719;-74
2023/02/21 06:43:18;;;;;;;2.27;1.10;;;5.50;80.70;;;;;;5053639;28;20207;-74
2023/02/21 06:45:44;;;;;;;2.87;1.37;;;5.60;80.30;;;;;;5057189;28;20222;-74
2023/02/21 06:48:14;;;;;;;1.53;0.87;;;5.70;80.40;;;;;;5051120;28;20735;-75
2023/02/21 06:50:40;;;;;;;0.90;0.70;;;5.80;80.40;;;;;;5055080;28;20227;-73
2023/02/21 06:53:06;;;;;;;1.17;0.87;;;5.90;80.20;;;;;;5051440;28;20203;-73
2023/02/21 06:55:31;;;;;;;0.90;0.90;;;6.00;79.80;;;;;;5051323;28;20640;-75
2023/02/21 06:57:57;;;;;;;0.63;0.63;;;6.10;79.50;;;;;;5051391;28;20724;-74
2023/02/21 07:00:24;;;;;;;0.73;0.73;;;6.20;78.90;;;;;;5054703;28;20179;-75
2023/02/21 07:02:50;;;;;;;1.37;0.83;;;6.30;78.70;;;;;;5051556;28;20179;-74
2023/02/21 07:05:16;;;;;;;1.67;1.13;;;6.50;78.70;;;;;;5050258;28;20200;-74
2023/02/21 07:07:42;;;;;;;1.20;1.10;;;6.60;77.20;;;;;;5053070;28;20348;-74
2023/02/21 07:10:07;;;;;;;1.33;1.23;;;6.80;77.50;;;;;;5051746;28;20219;-74
2023/02/21 07:12:33;;;;;;;0.90;0.90;;;7.00;77.10;;;;;;5055327;28;20184;-74
2023/02/21 07:14:59;;;;;;;1.13;0.80;;;7.10;77.10;;;;;;5055740;28;20184;-74
2023/02/21 07:17:24;;;;;;;3.23;1.03;;;7.30;76.60;;;;;;5051030;28;20209;-75
2023/02/21 07:19:50;;;;;;;0.90;0.90;;;7.60;75.50;;;;;;5051886;28;20183;-75
2023/02/21 07:22:17;;;;;;;5.30;2.07;;;7.80;75.30;;;;;;5049287;28;20644;-74
2023/02/21 07:24:43;;;;;;;2.23;1.93;;;8.00;74.90;;;;;;5052981;28;20188;-75
2023/02/21 07:27:09;;;;;;;1.27;1.17;;;8.30;73.90;;;;;;5052474;28;20207;-75
2023/02/21 07:29:35;;;;;;;1.10;1.10;;;8.60;73.30;;;;;;5053331;28;20697;-74
2023/02/21 07:32:00;;;;;;;3.23;1.33;;;9.00;72.30;;;;;;5051359;28;20184;-74
2023/02/21 07:34:26;;;;;;;2.00;1.10;;;9.40;72.10;;;;;;5052817;28;20254;-74
2023/02/21 07:36:51;;;;;;;2.37;1.00;;;9.90;71.00;;;;;;5052997;28;20175;-75
2023/02/21 07:39:17;;;;;;;1.87;1.47;;;10.40;70.80;;;;;;5056338;28;20211;-75
2023/02/21 07:41:43;;;;;;;1.70;1.33;;;11.10;69.40;;;;;;5053372;28;20171;-74
2023/02/21 07:44:09;;;;;;;3.65;1.60;;;11.80;68.40;;;;;;5046427;28;20192;-74
2023/02/21 07:46:34;;;;;;;4.15;1.40;;;12.30;66.90;;;;;;5047646;28;20310;-75
2023/02/21 07:49:00;;;;;;;1.15;1.02;;;12.70;65.60;;;;;;5050554;28;20195;-75
2023/02/21 07:51:29;;;;;;;1.15;1.10;;;13.20;64.40;;;;;;5046900;28;20212;-75
2023/02/21 07:53:56;;;;;;;1.17;1.13;;;13.60;62.70;;;;;;5046987;28;20191;-74
2023/02/21 07:56:22;;;;;;;2.10;1.33;;;13.70;62.30;;;;;;5050754;28;20195;-74
2023/02/21 07:58:48;;;;;;;0.95;0.82;;;13.80;60.90;;;;;;5049129;28;20182;-75
2023/02/21 08:01:14;;;;;;;4.25;1.58;;;13.90;62.00;;;;;;5047120;28;20184;-74
2023/02/21 08:03:40;;;;;;;1.52;1.52;;;14.00;61.60;;;;;;5052997;28;20194;-74
2023/02/21 08:06:08;;;;;;;1.83;1.48;;;13.90;61.00;;;;;;5052047;28;20221;-74
2023/02/21 08:08:33;;;;;;;3.72;1.33;;;13.90;61.20;;;;;;5043413;28;20562;-74
2023/02/21 08:10:59;;;;;;;1.20;1.20;;;13.80;61.30;;;;;;5054057;28;20265;-74
2023/02/21 08:13:25;;;;;;;2.20;1.42;;;13.50;61.60;;;;;;5043226;28;20171;-74
2023/02/21 08:15:51;;;;;;;1.10;1.05;;;13.30;61.80;;;;;;5047307;28;20627;-74
2023/02/21 08:18:19;;;;;;;3.17;2.17;;;13.10;61.70;;;;;;5048554;28;20185;-74
2023/02/21 08:20:46;;;;;;;1.80;1.50;;;12.90;61.90;;;;;;5047114;28;20271;-74
2023/02/21 08:23:12;;;;;;;1.55;1.30;;;12.70;62.20;;;;;;5043721;28;20190;-74
2023/02/21 08:25:38;;;;;;;2.15;1.58;;;12.50;62.30;;;;;;5051337;28;20660;-74
2023/02/21 08:28:03;;;;;;;5.22;1.75;;;12.30;62.70;;;;;;5042252;28;20175;-74
2023/02/21 08:30:29;;;;;;;7.57;2.35;;;12.00;63.00;;;;;;5047188;28;20233;-75
2023/02/21 08:32:55;;;;;;;6.07;2.28;;;11.90;63.70;;;;;;5045737;28;20608;-74
2023/02/21 08:35:20;;;;;;;3.63;2.33;;;12.00;63.30;;;;;;5052010;28;20188;-74
2023/02/21 08:37:47;;;;;;;1.90;1.80;;;12.00;63.30;;;;;;5042519;28;20182;-74
2023/02/21 08:40:14;;;;;;;2.10;1.98;;;12.20;63.70;;;;;;5048568;28;20195;-74
2023/02/21 08:42:40;;;;;;;2.08;1.88;;;12.40;63.10;;;;;;5052453;28;20718;-75
2023/02/21 08:45:09;;;;;;;1.92;1.83;;;12.70;63.40;;;;;;5046722;28;20179;-74
2023/02/21 08:47:35;;;;;;;4.05;2.38;;;13.10;63.30;;;;;;5049917;28;20875;-75
2023/02/21 08:50:01;;;;;;;3.42;2.00;;;13.40;61.20;;;;;;5049515;28;20211;-75
2023/02/21 08:52:26;;;;;;;5.88;2.63;;;13.50;61.10;;;;;;5048976;28;20186;-74
2023/02/21 08:54:52;;;;;;;2.35;2.25;;;13.70;60.60;;;;;;5049074;28;21385;-75
2023/02/21 08:57:18;;;;;;;3.70;2.65;;;13.90;60.40;;;;;;5046521;28;20180;-76
2023/02/21 08:59:44;;;;;;;6.32;2.78;;;14.20;60.30;;;;;;5046168;28;20199;-74
2023/02/21 09:02:17;;;;;;;2.55;2.28;;;14.40;59.50;;;;;;5047012;28;20210;-74
2023/02/21 09:04:44;;;;;;;3.05;2.80;;;14.60;59.90;;;;;;5044309;28;20183;-74
2023/02/21 09:07:12;;;;;;;3.03;2.67;;;14.60;59.40;;;;;;5050348;28;20197;-74
2023/02/21 09:09:38;;;;;;;3.83;2.75;;;14.60;58.40;;;;;;5047132;28;20199;-74
2023/02/21 09:12:07;;;;;;;2.35;2.08;;;14.50;58.90;;;;;;5042034;28;20183;-75
2023/02/21 09:14:34;;;;;;;3.95;2.75;;;14.70;59.40;;;;;;5048815;28;20571;-74
2023/02/21 09:17:00;;;;;;;2.42;2.22;;;14.70;58.60;;;;;;5046873;28;20191;-75
2023/02/21 09:19:27;;;;;;;2.65;2.40;;;15.00;59.20;;;;;;5042720;28;20182;-76
2023/02/21 09:21:56;;;;;;;2.80;2.47;;;15.50;59.40;;;;;;5047928;28;20262;-77
2023/02/21 09:24:24;;;;;;;3.65;2.50;;;16.40;58.60;;;;;;5047388;28;20182;-76
2023/02/21 09:26:58;;;;;;;4.97;2.17;;;17.10;56.00;;;;;;5043354;28;20287;-76
2023/02/21 09:29:25;;;;;;;6.90;2.60;;;17.80;54.80;;;;;;5044666;28;20235;-76
2023/02/21 09:31:51;;;;;;;3.92;2.90;;;18.40;53.90;;;;;;5048478;28;20214;-76
2023/02/21 09:34:17;;;;;;;5.00;2.65;;;19.20;52.80;;;;;;5046551;28;21432;-74
2023/02/21 09:36:43;;;;;;;7.80;2.33;;;20.10;52.30;;;;;;5050439;28;20186;-76
2023/02/21 09:39:09;;;;;;;3.33;2.85;;;21.10;52.00;;;;;;5043202;28;20190;-76
2023/02/21 09:41:36;;;;;;;2.95;2.65;;;22.20;50.60;;;;;;5044609;28;20183;-76
2023/02/21 09:44:04;;;;;;;4.07;2.22;;;23.30;48.50;;;;;;5042937;28;20183;-76
2023/02/21 09:46:33;;;;;;;2.63;2.35;;;24.10;46.20;;;;;;5047447;28;20206;-76
2023/02/21 09:49:02;;;;;;;3.42;2.35;;;24.70;47.00;;;;;;5045777;28;20178;-77
2023/02/21 09:51:29;;;;;;;2.70;2.00;;;25.30;46.70;;;;;;5041159;28;20188;-76
2023/02/21 09:53:58;;;;;;;2.40;2.20;;;26.00;45.60;;;;;;5048615;28;20660;-76
2023/02/21 09:56:27;;;;;;;5.13;2.42;;;26.70;45.30;;;;;;5046713;28;20543;-76
2023/02/21 09:58:53;;;;;;;2.78;2.58;;;27.10;45.00;;;;;;5053969;28;20865;-76
2023/02/21 10:01:34;;;;;;;2.67;2.42;;;27.60;44.60;;;;;;5045592;28;20187;-76
2023/02/21 10:04:21;;;;;;;3.10;2.78;;;28.50;43.80;;;;;;5051262;28;20183;-76
2023/02/21 10:07:01;;;;;;;2.08;1.98;;;29.40;44.30;;;;;;5048008;28;20203;-77
2023/02/21 10:09:41;;;;;;;6.90;1.88;;;30.50;43.40;;;;;;5045159;28;20200;-77
2023/02/21 10:12:12;;;;;;;2.78;2.58;;;31.60;42.30;;;;;;5049517;28;20565;-75
2023/02/21 10:14:46;;;;;;;1.92;1.83;;;32.50;42.30;;;;;;5042256;28;20176;-76
2023/02/21 10:17:21;;;;;;;1.40;1.40;;;33.10;40.60;;;;;;5048086;28;20264;-75
2023/02/21 10:19:53;;;;;;;6.07;2.08;;;33.40;41.00;;;;;;5049622;28;20183;-75
2023/02/21 10:22:22;;;;;;;2.53;2.42;;;33.50;40.50;;;;;;5048566;28;20672;-76
2023/02/21 10:24:49;;;;;;;2.40;2.30;;;33.70;41.50;;;;;;5048754;28;20705;-76
2023/02/21 10:27:21;;;;;;;3.63;2.53;;;33.50;39.40;;;;;;5049151;28;20719;-77
2023/02/21 10:30:04;;;;;;;2.70;2.17;;;33.60;41.10;;;;;;5048108;28;20199;-77
2023/02/21 10:32:31;;;;;;;1.75;1.75;;;33.60;38.30;;;;;;5050264;28;20217;-76
2023/02/21 10:34:58;;;;;;;4.65;1.92;;;33.90;40.20;;;;;;5044536;28;20191;-75
2023/02/21 10:37:29;;;;;;;1.88;1.83;;;34.00;39.30;;;;;;5046337;28;20278;-77
2023/02/21 10:40:04;;;;;;;3.60;0.95;;;34.00;39.20;;;;;;5048368;28;20213;-77
2023/02/21 10:42:36;;;;;;;0.80;0.60;;;34.20;38.60;;;;;;5047282;28;20202;-77
2023/02/21 10:45:03;;;;;;;0.40;0.40;;;34.40;37.90;;;;;;5052752;28;20902;-76
2023/02/21 10:47:48;;;;;;;1.38;0.50;;;34.30;35.60;;;;;;5058814;28;20193;-76
2023/02/21 10:50:14;;;;;;;0.50;0.50;;;33.90;33.70;;;;;;5053121;28;20249;-77
2023/02/21 10:52:50;;;;;;;4.68;0.50;;;33.60;34.40;;;;;;5056807;28;20198;-77
2023/02/21 10:55:19;;;;;;;0.40;0.40;;;33.20;35.00;;;;;;5056205;28;20179;-77
2023/02/21 10:57:53;;;;;;;0.95;0.40;;;32.90;36.50;;;;;;5054331;28;20562;-76
2023/02/21 11:00:40;;;;;;;5.00;0.52;;;32.90;37.60;;;;;;5052641;28;20252;-77
2023/02/21 11:03:12;;;;;;;0.93;0.52;;;33.10;33.90;;;;;;5049306;28;20185;-77
2023/02/21 11:05:37;;;;;;;0.50;0.50;;;32.90;37.60;;;;;;5052594;28;20205;-76
2023/02/21 11:08:08;;;;;;;0.50;0.50;;;33.20;36.80;;;;;;5055322;28;20191;-76
2023/02/21 11:10:40;;;;;;;0.70;0.70;;;33.20;34.20;;;;;;5050728;28;20210;-76
2023/02/21 11:13:19;;;;;;;1.20;0.80;;;32.40;33.90;;;;;;5046336;28;20183;-76
2023/02/21 11:15:45;;;;;;;0.75;0.75;;;31.60;33.30;;;;;;5051034;28;20183;-76
2023/02/21 11:18:24;;;;;;;0.60;0.60;;;30.90;35.40;;;;;;5052161;28;20184;-76
2023/02/21 11:20:52;;;;;;;0.63;0.30;;;30.50;34.40;;;;;;5050216;28;20203;-76
2023/02/21 11:23:24;;;;;;;0.30;0.30;;;29.70;35.50;;;;;;5049089;28;20258;-76
2023/02/21 11:25:57;;;;;;;0.38;0.38;;;29.40;37.70;;;;;;5051246;28;20846;-76
2023/02/21 11:28:23;;;;;;;0.30;0.30;;;29.70;36.00;;;;;;5051293;28;21669;-75
2023/02/21 11:31:01;;;;;;;0.40;0.40;;;30.00;35.20;;;;;;5053380;28;20268;-76
2023/02/21 11:33:29;;;;;;;0.30;0.30;;;30.10;35.10;;;;;;5050272;28;20384;-74
2023/02/21 11:36:15;;;;;;;1.35;0.52;;;30.00;36.60;;;;;;5051109;28;20175;-75
2023/02/21 11:38:42;;;;;;;0.28;0.28;;;30.20;35.00;;;;;;5055018;28;20203;-76
2023/02/21 11:41:44;;;;;;;1.20;0.30;;;30.00;35.70;;;;;;5055645;28;20179;-76
2023/02/21 11:44:36;;;;;;;0.55;0.30;;;29.90;35.00;;;;;;5051321;28;20317;-77
2023/02/21 11:47:07;;;;;;;0.30;0.30;;;30.00;34.80;;;;;;5010038;28;20198;-76
2023/02/21 11:49:40;;;;;;;0.20;0.20;;;29.90;37.90;;;;;;5027921;28;20224;-76
2023/02/21 11:52:12;;;;;;;0.65;0.50;;;30.10;38.80;;;;;;5028102;28;20195;-76
2023/02/21 11:54:38;;;;;;;0.65;0.30;;;30.20;35.50;;;;;;5027566;28;20268;-76
2023/02/21 11:57:30;;;;;;;0.30;0.30;;;29.80;35.00;;;;;;5025986;28;20789;-75
2023/02/21 12:00:22;;;;;;;0.20;0.20;;;29.20;35.20;;;;;;5027795;28;20198;-75
2023/02/21 12:02:59;;;;;;;0.30;0.30;;;28.90;35.80;;;;;;5032498;28;20190;-76
2023/02/21 12:06:27;;;;;;;0.35;0.35;;;28.50;37.00;;;;;;5028666;28;20263;-77
2023/02/21 12:09:38;;;;;;;0.40;0.40;;;28.70;36.40;;;;;;4943081;28;20253;-74
2023/02/21 12:12:18;;;;;;;0.30;0.30;;;28.80;35.70;;;;;;4886219;29;20232;-77
2023/02/21 12:14:53;;;;;;;0.40;0.40;;;28.40;36.40;;;;;;4886668;29;20220;-76
2023/02/21 12:17:37;;;;;;;0.30;0.30;;;28.10;37.10;;;;;;4887379;29;20223;-76
2023/02/21 12:20:17;;;;;;;0.30;0.30;;;27.70;36.70;;;;;;4886620;29;20196;-76
2023/02/21 12:23:02;;;;;;;0.40;0.40;;;27.40;39.30;;;;;;4884933;29;21560;-76
2023/02/21 12:25:51;;;;;;;0.82;0.40;;;27.20;37.30;;;;;;4924132;29;20184;-75
2023/02/21 12:28:40;;;;;;;0.30;0.30;;;26.90;37.00;;;;;;4924083;29;20243;-75
2023/02/21 12:31:39;;;;;;;0.40;0.40;;;26.80;37.20;;;;;;4884020;29;21100;-75
2023/02/21 12:34:31;;;;;;;0.32;0.30;;;26.30;37.70;;;;;;4886226;29;20197;-76
2023/02/21 12:37:32;;;;;;;0.40;0.40;;;26.00;38.20;;;;;;4884479;29;20201;-75
2023/02/21 12:40:04;;;;;;;0.40;0.38;;;26.10;38.60;;;;;;4834417;29;20194;-75
2023/02/21 12:42:38;;;;;;;0.30;0.30;;;26.30;38.70;;;;;;4846607;29;20270;-75
2023/02/21 12:45:19;;;;;;;0.43;0.43;;;26.40;38.00;;;;;;4849682;29;20857;-75
2023/02/21 12:48:11;;;;;;;1.85;0.60;;;26.20;39.50;;;;;;4848968;29;20190;-75
2023/02/21 12:50:44;;;;;;;0.47;0.47;;;26.40;38.90;;;;;;4885103;29;20232;-80
2023/02/21 12:53:24;;;;;;;0.38;0.38;;;26.10;38.40;;;;;;4886916;29;20193;-78
2023/02/21 12:56:07;;;;;;;0.50;0.50;;;25.20;38.90;;;;;;4883586;29;20197;-77
2023/02/21 12:58:54;;;;;;;0.57;0.57;;;25.10;39.40;;;;;;4884235;29;21111;-78
2023/02/21 13:01:28;;;;;;;0.55;0.30;;;25.10;40.10;;;;;;4886081;29;20205;-79
2023/02/21 13:04:18;;;;;;;1.52;0.47;;;25.00;39.30;;;;;;4885746;29;20429;-80
2023/02/21 13:06:50;;;;;;;0.32;0.32;;;24.60;39.90;;;;;;4885425;29;20706;-79
2023/02/21 13:09:25;;;;;;;0.50;0.50;;;24.60;40.40;;;;;;4957791;28;20191;-79
2023/02/21 13:11:57;;;;;;;0.90;0.50;;;24.60;39.30;;;;;;4946540;28;20718;-81
2023/02/21 13:14:38;;;;;;;0.40;0.40;;;24.20;40.00;;;;;;4958004;28;20253;-80
2023/02/21 13:17:03;;;;;;;0.52;0.43;;;24.40;40.20;;;;;;5028296;28;20190;-78
2023/02/21 13:19:55;;;;;;;0.43;0.43;;;24.10;40.40;;;;;;5045618;28;20179;-78
2023/02/21 13:26:15;;;;;;;6.90;0.40;;;24.00;39.90;;;;;;5024110;28;20314;-77
2023/02/21 13:28:43;;;;;;;0.30;0.30;;;24.20;39.90;;;;;;5030814;28;20211;-78
2023/02/21 13:31:19;;;;;;;0.38;0.38;;;24.30;41.00;;;;;;5008738;28;20693;-77
2023/02/21 13:33:54;;;;;;;0.98;0.30;;;24.80;40.10;;;;;;5024568;28;20187;-80
2023/02/21 13:36:27;;;;;;;0.30;0.30;;;25.20;40.30;;;;;;5021938;28;20195;-78
2023/02/21 13:39:14;;;;;;;0.40;0.40;;;25.50;39.70;;;;;;5026226;28;20262;-79
2023/02/21 13:41:49;;;;;;;0.40;0.40;;;25.90;38.90;;;;;;5024999;28;20205;-78
2023/02/21 13:44:23;;;;;;;0.80;0.40;;;26.30;39.80;;;;;;5022267;28;20316;-79
2023/02/21 13:46:51;;;;;;;1.02;0.40;;;26.60;38.80;;;;;;5009687;28;21068;-78
2023/02/21 13:49:40;;;;;;;0.60;0.60;;;26.90;39.00;;;;;;5021751;28;21832;-80
2023/02/21 13:52:23;;;;;;;0.40;0.40;;;27.10;37.60;;;;;;5019989;28;20764;-79
2023/02/21 13:55:07;;;;;;;0.65;0.50;;;27.00;37.40;;;;;;5016653;28;20821;-79
2023/02/21 13:57:36;;;;;;;0.30;0.30;;;26.80;37.70;;;;;;5022681;28;20195;-80
2023/02/21 14:00:22;;;;;;;0.43;0.43;;;26.60;38.40;;;;;;5039328;28;20339;-79
2023/02/21 14:03:08;;;;;;;2.47;0.50;;;26.70;38.80;;;;;;5046866;28;20262;-78
2023/02/21 14:05:43;;;;;;;2.78;0.32;;;27.00;38.70;;;;;;5046026;28;20586;-79
2023/02/21 14:08:17;;;;;;;2.05;0.40;;;27.30;38.50;;;;;;5046340;28;20190;-79
2023/02/21 14:10:47;;;;;;;0.55;0.55;;;27.70;38.90;;;;;;5048109;28;20214;-79
2023/02/21 14:13:29;;;;;;;0.50;0.40;;;28.00;39.20;;;;;;5043616;28;20184;-79
2023/02/21 14:16:07;;;;;;;0.43;0.43;;;28.30;37.80;;;;;;5044255;28;20200;-79
2023/02/21 14:18:58;;;;;;;2.28;0.40;;;28.60;37.40;;;;;;5049526;28;20886;-79
2023/02/21 14:21:48;;;;;;;0.60;0.60;;;28.80;37.00;;;;;;5053010;28;20240;-79
2023/02/21 14:24:15;;;;;;;1.85;0.38;;;28.90;37.80;;;;;;5055506;28;20218;-80
2023/02/21 14:27:00;;;;;;;0.38;0.38;;;28.80;37.10;;;;;;5054222;28;20274;-79
2023/02/21 14:29:42;;;;;;;2.30;0.65;;;28.60;38.00;;;;;;5051546;28;20187;-79
2023/02/21 14:32:07;;;;;;;0.45;0.45;;;28.50;37.30;;;;;;5048960;28;20190;-80
2023/02/21 14:34:53;;;;;;;4.60;0.82;;;28.40;37.20;;;;;;5052033;28;20187;-79
2023/02/21 14:37:22;;;;;;;0.47;0.47;;;28.30;36.60;;;;;;5053847;28;20182;-79
2023/02/21 14:40:23;;;;;;;1.95;0.50;;;28.10;36.60;;;;;;5057584;28;20183;-79
2023/02/21 14:43:19;;;;;;;0.32;0.32;;;28.00;36.80;;;;;;5050546;28;20675;-79
2023/02/21 14:46:02;;;;;;;0.80;0.50;;;28.00;37.60;;;;;;5055141;28;20266;-78
2023/02/21 14:49:05;;;;;;;0.50;0.50;;;27.90;38.20;;;;;;5052704;28;20282;-79
2023/02/21 14:51:43;;;;;;;0.45;0.45;;;27.60;36.60;;;;;;5054280;28;20348;-78
2023/02/21 14:54:42;;;;;;;0.43;0.43;;;27.40;36.80;;;;;;5053467;28;20182;-79
2023/02/21 14:57:38;;;;;;;0.40;0.40;;;27.10;36.70;;;;;;5054482;28;20182;-79
2023/02/21 15:00:17;;;;;;;0.50;0.50;;;26.90;36.70;;;;;;5055364;28;20236;-80
2023/02/21 15:02:49;;;;;;;0.50;0.50;;;26.70;38.10;;;;;;5056080;28;20694;-79
2023/02/21 15:05:30;;;;;;;0.52;0.52;;;26.40;37.80;;;;;;5053266;28;20180;-79
2023/02/21 15:07:58;;;;;;;0.73;0.50;;;26.30;37.80;;;;;;5053736;28;20191;-79
2023/02/21 15:10:29;;;;;;;3.60;1.00;;;26.10;37.90;;;;;;5056362;28;20216;-79
2023/02/21 15:13:01;;;;;;;0.73;0.73;;;25.90;38.00;;;;;;5054991;28;20668;-80
2023/02/21 15:15:41;;;;;;;0.77;0.77;;;25.70;39.50;;;;;;5052361;28;20195;-79
2023/02/21 15:18:08;;;;;;;0.88;0.55;;;25.50;38.20;;;;;;5048291;28;20568;-79
2023/02/21 15:20:39;;;;;;;0.68;0.68;;;25.30;39.40;;;;;;5049154;28;20657;-79
2023/02/21 15:23:08;;;;;;;0.68;0.68;;;25.10;39.10;;;;;;5054352;28;20194;-78
2023/02/21 15:25:35;;;;;;;0.55;0.55;;;24.80;40.20;;;;;;5051739;28;20187;-79
2023/02/21 15:28:02;;;;;;;0.70;0.70;;;24.40;39.10;;;;;;5055278;28;20179;-79
2023/02/21 15:30:40;;;;;;;0.60;0.60;;;24.30;39.80;;;;;;5055445;28;20215;-78
2023/02/21 15:33:18;;;;;;;0.60;0.60;;;24.00;39.20;;;;;;5054592;28;20176;-78
2023/02/21 15:35:57;;;;;;;1.50;0.60;;;23.60;41.20;;;;;;5052015;28;20183;-77